Latest Weather Observations for Portland Airport

IDV60801

Issued at 12:32 am EST Monday 25 July 2016 (issued every 30 minutes, with the page automatically refreshed every 10 minutes)

About weather observations | Map of weather stations | Latest weather observations for VIC | Other Formats
Station Details ID: 090171 Name: CASHMORE AIRPORT Lat: -38.31 Lon: 141.47 Height: 80.9 m
Data from the previous 72 hours. | See also: Recent months at Portland Airport
Date/Time
EST
Temp
°C
App
Temp
°C
Dew
Point
°C
Rel
Hum
%
Delta-T
°C
Wind Press
QNH
hPa
Press
MSL
hPa
Rain since
9am
mm
Dir  Spd
km/h
Gust
km/h
Spd
kts
Gust
kts
25/12:30am 9.9 3.2 7.2 83 1.3 W 32 43 17 23 1003.6 1003.7 15.0
25/12:01am 9.7 3.4 7.6 87 1.0 W 30 48 16 26 1003.2 1003.3 14.8
25/12:00am 9.8 4.0 7.9 88 0.9 W 28 43 15 23 1003.3 1003.4 14.8
 
Date/Time
EST
Temp
°C
App
Temp
°C
Dew
Point
°C
Rel
Hum
%
Delta-T
°C
Wind Press
QNH
hPa
Press
MSL
hPa
Rain since
9am
mm
Dir  Spd
km/h
Gust
km/h
Spd
kts
Gust
kts
24/11:30pm 8.3 3.0 6.9 91 0.7 WNW 24 33 13 18 1003.2 1003.3 14.8
24/11:27pm 8.4 3.2 7.2 92 0.6 WNW 24 35 13 19 1003.1 1003.2 14.8
24/11:08pm 7.7 3.1 6.5 92 0.6 NW 20 33 11 18 1003.0 1003.1 14.0
24/11:00pm 7.5 2.5 6.3 92 0.6 NNW 22 35 12 19 1002.8 1002.9 12.4
24/10:38pm 7.8 0.9 6.6 92 0.6 NW 32 44 17 24 1002.6 1002.7 12.2
24/10:30pm 7.6 1.5 6.5 93 0.5 NW 28 39 15 21 1002.5 1002.6 12.2
24/10:22pm 7.3 1.9 6.2 93 0.5 NW 24 35 13 19 1002.5 1002.6 12.2
24/10:13pm 7.1 2.0 6.0 93 0.5 NNW 22 33 12 18 1002.5 1002.6 11.2
24/10:00pm 7.2 2.1 6.0 92 0.5 NW 22 32 12 17 1002.7 1002.8 11.2
24/09:41pm 7.1 2.0 5.9 92 0.5 NW 22 33 12 18 1002.2 1002.3 9.6
24/09:30pm 7.2 2.1 6.0 92 0.5 NNW 22 32 12 17 1002.0 1002.1 8.8
24/09:19pm 7.2 1.7 6.0 92 0.5 NW 24 35 13 19 1002.2 1002.3 8.4
24/09:00pm 7.3 1.8 5.9 91 0.6 NW 24 35 13 19 1002.1 1002.2 7.8
24/08:54pm 7.4 1.9 6.0 91 0.6 NW 24 35 13 19 1002.1 1002.2 7.0
24/08:30pm 7.6 2.9 6.1 90 0.7 NNW 20 35 11 19 1001.5 1001.6 5.8
24/08:04pm 7.7 2.3 6.2 90 0.7 NNW 24 39 13 21 1001.4 1001.5 5.8
24/08:00pm 7.9 2.1 6.2 89 0.8 NW 26 39 14 21 1001.4 1001.5 5.8
24/07:33pm 7.9 3.3 6.7 92 0.6 NW 20 28 11 15 1001.3 1001.4 5.8
24/07:30pm 7.9 3.5 6.7 92 0.6 NW 19 28 10 15 1001.3 1001.4 5.8
24/07:00pm 7.7 2.0 6.5 92 0.6 NW 26 41 14 22 1000.8 1000.8 5.4
24/06:35pm 7.9 3.3 6.5 91 0.6 NW 20 32 11 17 1000.5 1000.5 3.8
24/06:30pm 7.9 3.3 6.5 91 0.6 NW 20 30 11 16 1000.5 1000.5 3.6
24/06:24pm 7.9 2.9 6.5 91 0.6 NW 22 30 12 16 1000.4 1000.4 3.4
24/06:00pm 8.0 2.6 6.5 90 0.7 NNW 24 35 13 19 1000.1 1000.1 2.2
24/05:30pm 7.9 2.5 6.4 90 0.7 NNW 24 37 13 20 999.8 999.8 1.6
24/05:00pm 7.9 2.5 6.2 89 0.8 NNW 24 41 13 22 999.8 999.8 1.4
24/04:30pm 7.9 1.2 5.7 86 1.0 NNW 30 48 16 26 999.6 999.6 0.8
24/04:03pm 8.0 1.8 6.0 87 0.9 NNW 28 48 15 26 999.8 999.8 0.6
24/04:00pm 8.1 2.7 6.2 88 0.9 NNW 24 41 13 22 999.9 999.9 0.6
24/03:33pm 8.6 1.1 6.1 84 1.1 NNW 35 56 19 30 999.7 999.7 0.0
24/03:30pm 8.7 1.7 6.2 84 1.2 NNW 32 48 17 26 999.7 999.7 0.0
24/03:12pm 8.8 2.6 6.3 84 1.2 N 28 46 15 25 999.6 999.6 0.0
24/03:00pm 9.0 4.4 6.3 83 1.3 N 20 33 11 18 999.6 999.6 0.0
24/02:30pm 8.8 4.1 6.1 83 1.2 NNE 20 32 11 17 1000.1 1000.1 0.0
24/02:00pm 8.9 3.4 5.8 81 1.4 N 24 39 13 21 1001.0 1001.1 0.0
24/01:30pm 9.0 2.7 5.6 79 1.5 N 28 46 15 25 1001.6 1001.7 0.0
24/01:22pm 9.0 2.6 5.2 77 1.7 N 28 46 15 25 1001.7 1001.8 0.0
24/01:00pm 9.3 2.1 5.1 75 1.9 N 32 43 17 23 1002.4 1002.5 0.0
24/12:30pm 8.9 2.1 4.9 76 1.8 N 30 50 16 27 1002.8 1002.9 0.0
24/12:24pm 8.7 2.2 4.7 76 1.8 N 28 50 15 27 1003.1 1003.2 0.0
24/12:00pm 8.8 2.6 4.4 74 2.0 N 26 41 14 22 1003.6 1003.7 0.0
24/11:30am 8.9 3.1 4.3 73 2.0 N 24 37 13 20 1004.3 1004.4 0.0
24/11:00am 8.3 2.9 4.3 76 1.8 N 22 32 12 17 1005.0 1005.1 0.0
24/10:30am 8.4 2.6 4.6 77 1.7 N 24 33 13 18 1005.6 1005.7 0.0
24/10:00am 7.6 2.7 4.9 83 1.2 N 20 30 11 16 1005.8 1005.9 0.0
24/09:30am 6.2 1.2 4.4 88 0.8 N 20 28 11 15 1006.1 1006.2 0.0
24/09:00am 5.1 0.5 3.8 91 0.5 N 17 20 9 11 1006.4 1006.5 2.2
24/08:30am 4.4 0.1 3.1 91 0.5 NNE 15 22 8 12 1006.8 1006.9 2.2
24/08:00am 4.7 0.0 3.2 90 0.6 N 17 20 9 11 1007.0 1007.1 2.2
24/07:30am 4.8 0.1 3.3 90 0.6 N 17 24 9 13 1007.2 1007.3 2.2
24/07:00am 4.8 -0.2 3.5 91 0.5 N 19 26 10 14 1007.2 1007.3 2.2
24/06:30am 4.6 -0.1 3.3 91 0.5 N 17 22 9 12 1007.3 1007.4 2.2
24/06:00am 4.2 -0.2 2.9 91 0.5 N 15 20 8 11 1007.6 1007.7 2.2
24/05:30am 4.5 0.2 3.2 91 0.5 N 15 20 8 11 1007.8 1007.9 2.2
24/05:00am 4.6 -0.1 3.3 91 0.5 N 17 22 9 12 1008.2 1008.3 2.2
24/04:30am 4.4 0.1 3.1 91 0.5 N 15 20 8 11 1008.5 1008.6 2.0
24/04:00am 4.4 0.1 3.1 91 0.5 N 15 22 8 12 1008.9 1009.0 2.0
24/03:30am 4.7 -0.6 3.2 90 0.6 N 20 30 11 16 1009.4 1009.5 2.0
24/03:00am 4.8 -0.2 3.5 91 0.5 N 19 26 10 14 1009.9 1010.0 2.0
24/02:30am 4.8 0.2 3.5 91 0.5 NNW 17 22 9 12 1010.3 1010.4 2.0
24/02:00am 5.3 0.7 3.8 90 0.6 NNW 17 26 9 14 1010.4 1010.5 2.0
24/01:30am 5.6 0.6 3.8 88 0.8 NNW 19 26 10 14 1010.6 1010.7 2.0
24/01:00am 5.4 0.4 3.7 89 0.7 NNW 19 24 10 13 1010.9 1011.0 2.0
24/12:30am 5.0 0.4 3.5 90 0.6 NNW 17 22 9 12 1011.1 1011.3 2.0
24/12:00am 5.1 0.4 3.4 89 0.7 NNW 17 20 9 11 1011.2 1011.4 2.0
 
Date/Time
EST
Temp
°C
App
Temp
°C
Dew
Point
°C
Rel
Hum
%
Delta-T
°C
Wind Press
QNH
hPa
Press
MSL
hPa
Rain since
9am
mm
Dir  Spd
km/h
Gust
km/h
Spd
kts
Gust
kts
23/11:30pm 5.0 0.3 3.3 89 0.7 NNW 17 26 9 14 1011.4 1011.6 2.0
23/11:00pm 5.0 1.1 3.5 90 0.6 NNW 13 17 7 9 1011.6 1011.8 2.0
23/10:30pm 5.2 1.4 3.7 90 0.6 NNW 13 15 7 8 1011.6 1011.8 2.0
23/10:00pm 5.7 1.9 3.9 88 0.8 NNW 13 17 7 9 1011.8 1012.0 2.0
23/09:30pm 5.8 2.0 4.1 89 0.7 NNW 13 19 7 10 1012.1 1012.3 2.0
23/09:00pm 6.0 2.6 4.2 88 0.8 N 11 15 6 8 1012.0 1012.2 2.0
23/08:30pm 6.5 2.8 4.3 86 0.9 NW 13 17 7 9 1012.0 1012.2 2.0
23/08:00pm 6.8 2.8 3.1 77 1.6 W 13 15 7 8 1012.0 1012.2 2.0
23/07:30pm 6.7 3.2 3.5 80 1.4 W 11 17 6 9 1011.7 1011.9 2.0
23/07:00pm 7.8 2.8 3.7 75 1.8 SW 19 28 10 15 1011.6 1011.8 2.0
23/06:30pm 7.7 4.3 4.1 78 1.6 WSW 11 17 6 9 1011.1 1011.3 2.0
23/06:00pm 8.3 3.9 4.5 77 1.7 SW 17 30 9 16 1010.8 1010.9 2.0
23/05:30pm 8.5 3.4 4.1 74 1.9 SW 20 30 11 16 1010.6 1010.7 2.0
23/05:00pm 8.3 3.5 4.5 77 1.7 W 19 26 10 14 1010.4 1010.5 2.0
23/04:30pm 7.2 -0.8 4.0 80 1.4 W 35 61 19 33 1010.4 1010.5 2.0
23/04:24pm 7.0 -1.5 3.4 78 1.5 W 37 61 20 33 1010.2 1010.3 1.8
23/04:23pm 6.9 -1.2 3.5 79 1.4 W 35 59 19 32 1010.2 1010.3 1.8
23/04:09pm 7.7 1.1 4.3 79 1.5 WSW 28 39 15 21 1010.2 1010.3 1.6
23/04:00pm 9.4 3.6 4.2 70 2.3 W 24 33 13 18 1010.0 1010.1 0.8
23/03:37pm 8.5 1.4 3.8 72 2.0 W 30 50 16 27 1010.0 1010.1 0.8
23/03:30pm 8.8 1.9 4.4 74 1.9 W 30 43 16 23 1009.9 1010.0 0.8
23/03:00pm 8.6 0.5 3.4 70 2.2 WSW 35 50 19 27 1009.5 1009.6 0.8
23/02:36pm 9.0 1.6 3.8 70 2.3 WSW 32 52 17 28 1009.2 1009.3 0.8
23/02:30pm 8.9 1.3 3.7 70 2.3 WSW 33 46 18 25 1009.2 1009.3 0.8
23/02:02pm 8.5 0.8 3.6 71 2.1 WSW 33 52 18 28 1008.8 1008.9 0.8
23/02:00pm 8.7 0.7 3.7 71 2.2 WSW 35 52 19 28 1008.9 1009.0 0.8
23/01:36pm 9.5 1.4 3.0 64 2.8 WSW 35 54 19 29 1008.6 1008.7 0.8
23/01:30pm 9.6 1.1 2.9 63 2.9 WSW 37 54 20 29 1008.6 1008.7 0.8
23/01:07pm 8.8 1.4 4.0 72 2.1 WSW 32 50 17 27 1008.6 1008.7 0.8
23/01:00pm 9.0 1.0 3.8 70 2.3 WSW 35 52 19 28 1008.6 1008.7 0.8
23/12:55pm 9.2 2.1 3.8 69 2.4 WSW 30 52 16 28 1008.3 1008.4 0.8
23/12:54pm 8.8 1.7 3.8 71 2.2 WSW 30 44 16 24 1008.4 1008.5 0.8
23/12:40pm 7.3 -0.7 3.7 78 1.5 WSW 35 54 19 29 1008.8 1008.9 0.8
23/12:30pm 8.8 1.1 3.4 69 2.3 WSW 33 52 18 28 1008.5 1008.6 0.0
23/12:14pm 9.0 0.4 2.6 64 2.7 WSW 37 56 20 30 1008.8 1008.9 0.0
23/12:00pm 9.7 0.5 1.4 56 3.5 WSW 39 56 21 30 1008.6 1008.7 0.0
23/11:30am 8.1 -1.5 3.2 71 2.1 WSW 43 65 23 35 1008.8 1008.9 0.0
23/11:02am 8.2 1.0 3.1 70 2.2 SW 30 48 16 26 1008.5 1008.6 0.0
23/11:00am 8.2 1.3 4.4 77 1.7 SW 30 46 16 25 1008.5 1008.6 0.0
23/10:34am 9.6 0.2 0.2 52 3.8 WSW 39 57 21 31 1007.8 1007.9 0.0
23/10:30am 10.0 1.2 1.1 54 3.7 WSW 37 54 20 29 1007.8 1007.9 0.0
23/10:00am 8.4 0.6 1.8 63 2.7 WSW 32 59 17 32 1007.5 1007.6 0.0
23/09:30am 7.0 -1.3 2.1 71 2.0 SW 35 65 19 35 1007.5 1007.6 0.0
23/09:04am 8.5 0.2 0.0 55 3.4 WSW 33 52 18 28 1006.7 1006.8 0.0
23/09:00am 8.3 -0.5 -1.5 50 3.8 WSW 35 52 19 28 1006.6 1006.7 15.6
23/08:40am 8.0 -0.7 -0.5 55 3.3 WSW 35 54 19 29 1006.4 1006.5 15.6
23/08:30am 7.8 -1.4 1.0 62 2.7 WSW 39 54 21 29 1006.1 1006.2 15.6
23/08:00am 7.8 -1.0 -1.2 53 3.5 WSW 35 56 19 30 1005.9 1006.0 15.6
23/07:31am 7.2 -0.4 0.6 63 2.6 WSW 30 48 16 26 1005.3 1005.4 15.6
23/07:30am 7.2 -0.8 0.6 63 2.6 WSW 32 48 17 26 1005.3 1005.4 15.6
23/07:07am 7.7 0.2 0.9 62 2.7 WSW 30 50 16 27 1004.9 1005.0 15.6
23/07:00am 7.4 0.5 0.2 60 2.9 SW 26 39 14 21 1004.6 1004.7 15.6
23/06:30am 8.0 -0.3 -0.2 56 3.2 SW 33 54 18 29 1004.3 1004.4 15.6
23/06:14am 8.0 -0.9 -2.0 49 3.8 WSW 35 61 19 33 1003.9 1004.0 15.6
23/06:00am 8.1 -0.7 -1.4 51 3.7 WSW 35 50 19 27 1003.7 1003.8 15.6
23/05:35am 8.0 -2.1 -2.6 47 3.9 WSW 41 59 22 32 1003.1 1003.2 15.6
23/05:30am 8.1 -2.5 -3.4 44 4.2 WSW 43 59 23 32 1003.0 1003.1 15.6
23/05:00am 7.9 -1.1 -0.1 57 3.2 WSW 37 57 20 31 1002.3 1002.4 15.6
23/04:30am 7.9 -1.1 0.2 58 3.1 WSW 37 57 20 31 1001.4 1001.5 15.6
23/04:13am 7.2 -0.5 2.1 70 2.1 SW 32 50 17 27 1001.0 1001.1 15.6
23/04:05am 6.5 -3.8 2.8 77 1.5 WSW 46 83 25 45 1001.0 1001.1 15.6
23/04:00am 7.2 -1.3 2.9 74 1.8 WSW 37 83 20 45 1000.7 1000.7 15.4
23/03:59am 7.4 -0.8 2.7 72 2.0 WSW 35 83 19 45 1000.7 1000.7 15.4
23/03:58am 7.5 0.0 3.2 74 1.8 WSW 32 83 17 45 1000.7 1000.7 15.4
23/03:36am 7.8 0.3 3.3 73 1.9 SW 32 50 17 27 1000.5 1000.5 15.2
23/03:30am 7.5 0.0 3.4 75 1.7 WSW 32 43 17 23 1000.3 1000.3 15.2
23/03:00am 7.9 0.4 4.5 79 1.5 WSW 33 57 18 31 999.6 999.6 15.2
23/02:30am 7.8 1.0 5.3 84 1.1 WSW 30 52 16 28 998.9 999.0 15.2
23/02:03am 7.8 -0.8 4.4 79 1.5 SW 39 57 21 31 998.3 998.4 14.6
23/02:00am 7.8 -1.3 4.2 78 1.6 WSW 41 57 22 31 998.2 998.3 14.6
23/01:36am 7.7 1.3 5.3 85 1.1 SW 28 46 15 25 997.4 997.5 14.6
23/01:30am 7.8 0.7 5.4 85 1.1 SW 32 54 17 29 997.3 997.4 14.6
23/01:23am 8.1 0.5 5.7 85 1.1 WSW 35 54 19 29 997.0 997.1 14.6
23/01:16am 8.0 1.3 5.6 85 1.1 WSW 30 46 16 25 996.6 996.7 14.6
23/01:00am 7.8 3.2 5.6 86 1.0 WSW 19 26 10 14 996.4 996.5 14.2
23/12:34am 7.6 1.1 4.9 83 1.2 WSW 28 52 15 28 996.1 996.2 13.8
23/12:30am 7.7 1.6 5.0 83 1.2 WSW 26 43 14 23 995.8 995.9 13.4
23/12:25am 7.6 1.2 5.1 84 1.1 WSW 28 46 15 25 995.6 995.7 13.4
23/12:00am 7.7 2.9 5.7 87 0.9 WSW 20 28 11 15 995.2 995.3 12.8
 
Date/Time
EST
Temp
°C
App
Temp
°C
Dew
Point
°C
Rel
Hum
%
Delta-T
°C
Wind Press
QNH
hPa
Press
MSL
hPa
Rain since
9am
mm
Dir  Spd
km/h
Gust
km/h
Spd
kts
Gust
kts
22/11:30pm 7.2 3.0 5.7 90 0.7 WSW 17 24 9 13 994.9 995.0 12.8
22/11:04pm 7.1 2.3 5.7 91 0.6 SW 20 30 11 16 994.3 994.4 12.6
22/11:00pm 7.2 2.4 5.8 91 0.6 SW 20 33 11 18 994.2 994.3 12.6
22/10:53pm 7.3 2.2 5.9 91 0.6 SW 22 33 12 18 994.0 994.1 12.4
22/10:30pm 7.1 0.8 5.6 90 0.7 WSW 28 39 15 21 993.6 993.7 11.8
22/10:10pm 7.4 0.8 5.9 90 0.7 SW 30 44 16 24 992.8 992.9 10.8
22/10:06pm 7.4 0.8 5.9 90 0.7 SW 30 46 16 25 992.6 992.7 10.6
22/10:00pm 7.8 0.9 6.3 90 0.7 SW 32 52 17 28 992.2 992.3 10.4
22/09:59pm 7.8 0.9 6.3 90 0.7 SW 32 52 17 28 992.2 992.3 10.4
22/09:49pm 8.6 0.0 6.7 88 0.9 W 41 61 22 33 991.8 991.9 10.2
22/09:47pm 8.7 0.2 6.8 88 0.9 W 41 61 22 33 991.6 991.7 10.2
22/09:44pm 9.0 1.7 7.3 89 0.8 WNW 35 56 19 30 991.4 991.5 10.2
22/09:41pm 9.2 2.4 7.5 89 0.8 WNW 33 48 18 26 991.3 991.4 10.2
22/09:30pm 9.1 2.3 7.1 87 0.9 NW 32 43 17 23 991.0 991.1 9.6
22/09:00pm 8.7 3.0 6.8 88 0.9 NNW 26 35 14 19 991.6 991.7 9.6
22/08:30pm 8.6 4.7 7.2 91 0.7 N 17 26 9 14 992.3 992.4 9.4
22/08:00pm 8.2 5.0 6.7 90 0.7 NNW 13 19 7 10 992.8 992.9 9.4
22/07:30pm 8.4 5.2 6.9 90 0.7 NW 13 24 7 13 992.7 992.8 9.4
22/07:29pm 8.4 5.2 6.9 90 0.7 NW 13 24 7 13 992.6 992.7 9.4
22/07:00pm 9.0 5.2 7.5 90 0.7 WNW 17 32 9 17 993.7 993.8 7.6
22/06:52pm 9.4 6.8 7.7 89 0.8 NNW 11 17 6 9 993.7 993.8 5.2
22/06:34pm 9.3 6.6 7.4 88 0.9 WNW 11 15 6 8 993.5 993.6 4.0
22/06:30pm 9.6 7.0 7.7 88 0.9 NW 11 15 6 8 993.7 993.8 4.0
22/06:12pm 10.3 8.0 7.5 83 1.3 NNW 9 20 5 11 993.7 993.8 2.4
22/06:00pm 10.7 8.3 6.8 77 1.9 WNW 9 13 5 7 993.6 993.7 1.8
22/05:30pm 10.8 6.8 6.7 76 1.9 W 17 22 9 12 993.7 993.8 1.8
22/05:00pm 11.5 7.1 7.4 76 2.0 WSW 20 28 11 15 993.9 994.0 1.8
22/04:30pm 11.9 6.0 6.0 67 2.8 W 26 35 14 19 994.0 994.1 1.6
22/04:00pm 12.1 6.4 6.8 70 2.6 W 26 35 14 19 994.2 994.3 1.6
22/03:30pm 12.2 5.9 7.3 72 2.4 W 30 43 16 23 994.4 994.5 1.6
22/03:00pm 11.9 5.7 8.0 77 1.9 WSW 30 39 16 21 994.4 994.5 1.6
22/02:39pm 11.8 5.8 8.5 80 1.6 W 30 39 16 21 994.4 994.5 1.6
22/02:30pm 11.5 5.8 8.5 82 1.5 W 28 37 15 20 994.4 994.5 1.6
22/02:25pm 11.2 4.7 8.2 82 1.5 WSW 32 39 17 21 994.5 994.6 1.6
22/02:00pm 12.3 5.2 8.2 76 2.0 W 35 50 19 27 994.6 994.7 1.4
22/01:43pm 12.5 6.6 9.0 79 1.8 W 30 48 16 26 994.7 994.8 1.4
22/01:30pm 11.8 5.2 8.6 81 1.6 W 33 46 18 25 994.9 995.0 1.4
22/01:12pm 13.6 6.8 9.3 75 2.2 W 35 54 19 29 994.9 995.0 1.2
22/01:00pm 12.8 4.6 8.3 74 2.3 W 41 54 22 29 995.0 995.1 1.2
22/12:30pm 12.3 4.1 8.2 76 2.0 W 41 65 22 35 994.8 994.9 1.2
22/12:13pm 13.4 4.5 7.8 69 2.8 W 44 63 24 34 995.1 995.2 1.2
22/12:00pm 14.2 5.6 8.8 70 2.8 W 44 59 24 32 995.1 995.2 1.2
22/11:33am 14.0 5.6 9.0 72 2.5 W 43 61 23 33 995.2 995.3 1.2
22/11:30am 14.1 5.8 9.5 74 2.4 W 43 57 23 31 995.4 995.5 1.2
22/11:00am 13.4 4.8 8.7 73 2.4 W 44 63 24 34 995.3 995.4 1.2
22/10:37am 12.6 6.0 10.0 84 1.3 WNW 35 57 19 31 995.2 995.3 1.2
22/10:30am 12.7 5.8 10.4 86 1.2 WNW 37 52 20 28 995.2 995.3 1.2
22/10:03am 10.7 3.3 8.3 85 1.2 WNW 37 50 20 27 995.1 995.2 1.2
22/10:00am 10.7 3.3 8.3 85 1.2 WNW 37 50 20 27 995.1 995.2 1.2
22/09:49am 11.4 2.4 9.0 85 1.2 WNW 46 78 25 42 995.4 995.5 1.0
22/09:44am 11.9 3.5 9.1 83 1.4 WNW 43 78 23 42 995.3 995.4 0.8
22/09:43am 12.0 4.4 9.2 83 1.4 WNW 39 78 21 42 995.2 995.3 0.8
22/09:42am 12.3 5.1 9.3 82 1.5 WNW 37 78 20 42 995.3 995.4 0.6
22/09:30am 13.1 5.7 9.9 81 1.6 NW 39 59 21 32 994.7 994.8 0.0
22/09:23am 13.3 7.1 10.1 81 1.7 NW 33 52 18 28 994.8 994.9 0.0
22/09:00am 13.4 6.8 10.0 80 1.8 NW 35 50 19 27 994.8 994.9 3.2
22/08:38am 13.5 6.9 10.1 80 1.8 NW 35 57 19 31 995.0 995.1 3.2
22/08:30am 13.5 7.6 10.3 81 1.7 NW 32 48 17 26 995.0 995.1 3.2
22/08:08am 13.2 7.2 10.0 81 1.7 NW 32 50 17 27 994.9 995.0 3.2
22/08:00am 13.2 7.0 10.0 81 1.7 NW 33 43 18 23 995.1 995.2 3.2
22/07:30am 13.3 6.2 9.7 79 1.9 NW 37 50 20 27 995.2 995.3 3.2
22/07:00am 13.3 7.2 10.5 83 1.5 NW 33 48 18 26 995.2 995.3 3.2
22/06:35am 13.1 8.1 10.8 86 1.2 NNW 28 46 15 25 995.0 995.1 3.2
22/06:30am 13.1 8.5 11.0 87 1.1 NNW 26 37 14 20 995.1 995.2 3.2
22/06:00am 13.2 8.9 10.7 85 1.3 NW 24 35 13 19 995.7 995.8 3.2
22/05:30am 13.2 8.5 10.7 85 1.3 NW 26 39 14 21 996.1 996.2 3.2
22/05:00am 13.4 8.3 10.6 83 1.5 NW 28 41 15 22 996.3 996.4 3.2
22/04:30am 13.4 7.9 10.4 82 1.6 NW 30 37 16 20 996.6 996.7 3.2
22/04:00am 13.7 7.8 10.3 80 1.8 NW 32 46 17 25 997.0 997.1 3.2
22/03:30am 13.7 7.7 10.1 79 1.9 NW 32 48 17 26 997.1 997.2 3.2
22/03:27am 13.9 8.0 10.5 80 1.8 NW 32 50 17 27 997.2 997.3 3.2
22/03:00am 14.3 8.1 11.5 83 1.5 NW 35 48 19 26 997.8 997.9 3.2
22/02:35am 14.6 9.2 12.1 85 1.4 NW 32 50 17 27 998.2 998.3 3.2
22/02:30am 14.8 9.2 12.1 84 1.5 WNW 33 50 18 27 998.2 998.3 3.2
22/02:00am 15.2 9.3 12.5 84 1.5 WNW 35 50 19 27 998.2 998.3 3.2
22/01:30am 16.0 10.4 13.3 84 1.5 WNW 35 50 19 27 998.5 998.6 3.2
22/01:06am 16.1 11.9 13.4 84 1.5 NNW 28 46 15 25 998.8 998.9 3.2
22/01:00am 16.0 12.1 13.3 84 1.5 NNW 26 43 14 23 998.7 998.8 3.2

Other Formats:

Comma delimited format used in spreadsheet applications
http://www.bom.gov.au/fwo/IDV60801/IDV60801.94828.axf

JavaScript Object Notation format (JSON) in row-major order
http://www.bom.gov.au/fwo/IDV60801/IDV60801.94828.json